首页
METAR-TAF:

METAR-TAF

机场 :

Greer, 南卡罗来纳州, 美国

纬度: 34-53-02N, 经度: 082-13-15W, 海拔: 296米

当前天气观测

该预报发布于1小时和6分钟前的21:53 UTC
风速4节,风向多变
温度 22°C
湿度 50%
气压 1018 hPa
能見度: 16.1公里
散云层高于6500英尺
阴天层高于10000英尺

METAR: KGSP 112153Z VRB04KT 10SM SCT065 OVC100 22/11 A3007 RMK AO2 SLP174 T02220106

时间: 18:59 (22:59 UTC)

预报

该预报发布于5小时和19分钟前的17:40 UTC
预报有效从11日的 18点(UTC)到 12日的 18点(UTC)
风速6节,风向北转东北
能見度: 10公里
散云层高于4000英尺
多云层高于15000英尺
几率 30%
从 12日的 03点(UTC)到 12日的 09点(UTC)
能見度: 6.4公里
阴天层高于2500英尺
小雨, 轻雾
从 12日的 0900点(UTC)
风速8节,风向东北
能見度: 10公里
阴天层高于2900英尺
小雨
从 12日的 1200点(UTC)
风速12节,风向东北,有时为18节阵风
能見度: 9.7公里
阴天层高于1900英尺
小雨
从 12日的 1400点(UTC)
风速13节,风向东北
能見度: 4.8公里
阴天层高于900英尺
小雨, 轻雾
短暂存在
从 12日的 16点(UTC)到 12日的 18点(UTC)
能見度: 3.2公里
阴天层高于500英尺
小雨, 轻雾

TAF: KGSP 111740Z 1118/1218 03006KT P6SM SCT040 BKN150 PROB30 1203/1209 4SM -RA BR OVC025 FM120900 04008KT P6SM -RA OVC029 FM121200 04012G18KT 6SM -RA OVC019 FM121400 04013KT 3SM -RA BR OVC009 TEMPO 1216/1218 2SM -RA BR OVC005

超过4000个机场的气象观测和天气预报(METAR&TAF报告)。

可查询的气象台以黄色和红色小点在地图上表示。

将鼠标移到小点上方,可查看气象台名称。

然后点击查看天气观测和预报。

如需切换地图:点击带黑十字的绿色按钮放大地图;点击带横线的绿色按钮缩小地图;或者点击绿色箭头查看邻近地区的地图。


METAR-TAF: